Latest Coastal Weather Observations for Hogan Island

IDV60701

Issued at 7:51 pm EDT Monday 24 February 2020 (issued every 10 minutes, with the page automatically refreshed every 10 minutes)

About coastal observations | Map of coastal stations | Coastal observations for VIC | Marine services | Other Formats
Station Details ID: 200838 Name: HOGAN ISLAND Lat: -39.22 Lon: 146.98 Height: 116.0 m
Data from the previous 72 hours. | See also: Recent months at Hogan Island
Date/Time
EDT
Wind Sea
Height
m
Swell Vis
km
Cloud Weather Temp
°C
Press
hPa
Rain since
9am
mm
Dir  Spd
kts
Gust
kts
Height
m
Period
s
Dir
24/07:30pm E 6 7 - - - - - - - 17.8 1017.9 0.2
24/07:00pm ESE 10 11 - - - - - - - 17.8 1017.3 0.2
24/06:30pm E 10 12 - - - - - - - 17.8 1017.1 0.2
24/06:00pm SE 9 10 - - - - - - - 18.2 1017.2 0.2
24/05:30pm SSE 7 9 - - - - - - - 18.7 - 0.2
24/05:00pm S 8 10 - - - - - - - 18.4 1017.9 0.2
24/04:30pm S 8 10 - - - - - - - 19.1 1018.2 0.2
24/04:00pm S 7 8 - - - - - - - 19.0 1018.3 0.2
24/03:30pm SE 6 7 - - - - - - - 19.1 1018.4 0.2
24/03:00pm ESE 7 9 - - - - - - - 19.9 1018.4 0.2
24/02:30pm SE 7 8 - - - - - - - 19.7 1018.8 0.2
24/02:00pm S 10 12 - - - - - - - 20.3 1018.6 0.2
24/01:30pm S 8 10 - - - - - - - 20.1 1019.2 0.2
24/01:00pm SSE 5 7 - - - - - - - 19.6 1019.1 0.2
24/12:30pm SE 6 8 - - - - - - - 19.8 1019.2 0.2
24/12:00pm SSE 6 7 - - - - - - - 21.1 1019.5 0.0
24/11:30am SSE 7 9 - - - - - - - 20.6 1019.7 0.0
24/11:00am SSE 7 9 - - - - - - - 20.6 1019.9 0.0
24/10:30am S 7 9 - - - - - - - 19.5 1019.6 0.0
24/10:00am SSE 7 9 - - - - - - - 20.2 1019.6 0.0
24/09:30am SSE 8 11 - - - - - - - 18.8 1019.2 0.0
24/09:00am S 8 9 - - - - - - - 18.3 1019.3 0.0
24/08:30am SSW 8 11 - - - - - - - 16.9 1019.3 0.0
24/08:00am SSW 5 7 - - - - - - - 16.8 1019.0 0.0
24/07:30am SSW 5 7 - - - - - - - 16.4 1018.8 0.0
24/07:00am SSW 9 10 - - - - - - - 16.4 1018.5 0.0
24/06:30am S 11 13 - - - - - - - 16.5 1018.2 0.0
24/06:00am SSW 11 14 - - - - - - - 16.3 1018.0 0.0
24/05:30am SW 12 16 - - - - - - - 16.7 1017.9 0.0
24/05:00am SW 14 16 - - - - - - - 16.7 1017.9 0.0
24/04:30am SW 12 15 - - - - - - - 16.8 1017.8 0.0
24/04:00am SW 10 13 - - - - - - - 17.0 1017.5 0.0
24/03:30am SSW 12 14 - - - - - - - 17.1 1017.2 0.0
24/03:00am SSW 12 16 - - - - - - - 17.3 1017.1 0.0
24/02:30am S 12 14 - - - - - - - 17.4 1017.3 0.0
24/02:00am SSW 11 13 - - - - - - - 17.4 1018.1 0.0
24/01:30am SSW 11 13 - - - - - - - 17.7 1018.2 0.0
24/01:00am S 3 5 - - - - - - - 18.2 1018.4 0.0
24/12:30am SW 4 6 - - - - - - - 18.7 1018.7 0.0
24/12:00am E 4 6 - - - - - - - 18.8 1018.1 0.0
 
Date/Time
EDT
Wind Sea
Height
m
Swell Vis
km
Cloud Weather Temp
°C
Press
hPa
Rain since
9am
mm
Dir  Spd
kts
Gust
kts
Height
m
Period
s
Dir
23/11:30pm NNW 5 7 - - - - - - - 19.2 1018.6 0.0
23/11:00pm NE 4 6 - - - - - - - 20.1 1018.9 0.0
23/10:30pm ENE 5 7 - - - - - - - 19.3 1018.4 0.0
23/10:00pm NE 9 10 - - - - - - - 18.2 1018.3 0.0
23/09:30pm NE 10 11 - - - - - - - 17.9 1018.3 0.0
23/09:00pm NE 8 10 - - - - - - - 17.8 1018.0 0.0
23/08:30pm ENE 6 7 - - - - - - - 18.3 1018.0 0.0
23/08:00pm E 6 9 - - - - - - - 18.2 1017.7 0.0
23/07:30pm ESE 7 8 - - - - - - - 18.4 1016.9 0.0
23/07:00pm ESE 7 8 - - - - - - - 19.3 1016.7 0.0
23/06:30pm ESE 8 8 - - - - - - - 19.9 1016.7 0.0
23/06:00pm E 6 8 - - - - - - - 20.4 1016.4 0.0
23/05:30pm E 6 7 - - - - - - - 21.1 1016.8 0.0
23/05:00pm ENE 5 7 - - - - - - - 21.7 1016.9 0.0
23/04:30pm ENE 6 7 - - - - - - - 21.4 1017.0 0.0
23/04:00pm NE 7 9 - - - - - - - 21.8 1017.1 0.0
23/03:30pm NNE 7 9 - - - - - - - 22.3 1017.4 0.0
23/03:00pm NNE 10 12 - - - - - - - 21.9 1017.5 0.0
23/02:30pm NNE 11 13 - - - - - - - 22.5 1018.0 0.0
23/02:00pm NNE 11 13 - - - - - - - 21.8 1018.3 0.0
23/01:30pm NNE 10 13 - - - - - - - 22.1 1018.5 0.0
23/01:00pm NE 10 14 - - - - - - - 22.0 1018.8 0.0
23/12:30pm NNE 8 11 - - - - - - - 21.7 1019.2 0.0
23/12:00pm N 7 10 - - - - - - - 22.0 1019.3 0.0
23/11:30am N 6 9 - - - - - - - 21.4 1019.7 0.0
23/11:00am N 4 7 - - - - - - - 21.9 1020.2 0.0
23/10:30am WNW 4 5 - - - - - - - 19.7 1020.5 0.0
23/10:00am NNW 4 5 - - - - - - - 19.7 1020.5 0.0
23/09:30am NNW 5 6 - - - - - - - 18.9 1020.4 0.0
23/09:00am N 5 7 - - - - - - - 18.6 1020.1 0.0
23/08:30am NE 6 8 - - - - - - - 18.3 1020.4 0.0
23/08:00am NE 8 10 - - - - - - - 17.6 1020.3 0.0
23/07:30am ENE 11 14 - - - - - - - 16.9 1019.9 0.0
23/07:00am E 12 14 - - - - - - - 16.4 1019.4 0.0
23/06:30am E 13 15 - - - - - - - 16.4 1019.3 0.0
23/06:00am E 12 14 - - - - - - - 16.1 1019.3 0.0
23/05:30am E 12 14 - - - - - - - 15.9 1019.5 0.0
23/05:00am E 13 14 - - - - - - - 16.1 1019.6 0.0
23/04:30am E 12 14 - - - - - - - 15.9 1020.0 0.0
23/04:00am ESE 15 16 - - - - - - - 16.4 1020.0 0.0
23/03:30am ESE 12 14 - - - - - - - 15.9 1020.3 0.0
23/03:00am E 12 13 - - - - - - - 15.8 1020.3 0.0
23/02:30am E 12 14 - - - - - - - 15.9 1021.0 0.0
23/02:00am E 13 15 - - - - - - - 15.9 1021.2 0.0
23/01:30am E 16 19 - - - - - - - 16.5 1021.5 0.0
23/01:00am E 17 21 - - - - - - - 16.5 1021.7 0.0
23/12:30am ENE 17 20 - - - - - - - 16.0 1021.9 0.0
23/12:00am ENE 18 21 - - - - - - - 16.0 1021.8 0.0
 
Date/Time
EDT
Wind Sea
Height
m
Swell Vis
km
Cloud Weather Temp
°C
Press
hPa
Rain since
9am
mm
Dir  Spd
kts
Gust
kts
Height
m
Period
s
Dir
22/11:30pm ENE 19 22 - - - - - - - 15.9 1022.2 0.0
22/11:00pm ENE 21 24 - - - - - - - 16.1 1022.3 0.0
22/10:30pm ENE 21 26 - - - - - - - 16.0 1022.6 0.0
22/10:00pm ENE 21 25 - - - - - - - 15.9 1022.9 0.0
22/09:30pm ENE 20 23 - - - - - - - 15.7 1023.0 0.0
22/09:00pm ENE 21 24 - - - - - - - 15.8 1022.7 0.0
22/08:30pm ENE 20 23 - - - - - - - 15.8 1022.9 0.0
22/08:00pm ENE 20 22 - - - - - - - 15.7 1022.7 0.0
22/07:30pm ENE 19 23 - - - - - - - 16.3 1022.6 0.0
22/07:00pm ENE 18 21 - - - - - - - 16.7 1022.6 0.0
22/06:30pm ENE 18 20 - - - - - - - 17.2 1022.6 0.0
22/06:00pm ENE 18 20 - - - - - - - 18.0 1022.3 0.0
22/05:30pm ENE 17 19 - - - - - - - 18.4 1022.7 0.0
22/05:00pm ENE 17 20 - - - - - - - 19.0 1022.8 0.0
22/04:30pm ENE 16 18 - - - - - - - 19.4 1023.2 0.0
22/04:00pm ENE 15 17 - - - - - - - 19.5 1023.5 0.0
22/03:30pm ENE 15 17 - - - - - - - 20.4 1023.7 0.0
22/03:00pm E 10 12 - - - - - - - 19.0 1023.6 0.0
22/02:30pm E 10 12 - - - - - - - 19.5 1024.0 0.0
22/02:00pm E 10 12 - - - - - - - 19.2 1024.3 0.0
22/01:30pm E 9 12 - - - - - - - 18.9 1024.4 0.0
22/01:00pm E 8 11 - - - - - - - 19.5 1024.4 0.0
22/12:30pm E 8 11 - - - - - - - 18.6 1024.5 0.0
22/12:00pm E 9 11 - - - - - - - 19.0 1024.4 0.0
22/11:30am ESE 8 10 - - - - - - - 19.1 1025.1 0.0
22/11:00am ESE 7 9 - - - - - - - 18.2 1025.1 0.0
22/10:30am ESE 7 9 - - - - - - - 17.6 1025.1 0.0
22/10:00am ENE 6 9 - - - - - - - 17.1 1024.8 0.0
22/09:30am ENE 7 10 - - - - - - - 16.8 1024.6 0.0
22/09:00am ENE 7 9 - - - - - - - 16.6 1024.0 0.0
22/08:30am ENE 7 8 - - - - - - - 15.8 1024.1 0.0
22/08:00am ENE 4 5 - - - - - - - 15.1 1023.9 0.0
22/07:30am NNE 6 7 - - - - - - - 13.2 1023.6 0.0
22/07:00am NNE 7 8 - - - - - - - 12.2 1023.2 0.0
22/06:30am NE 6 7 - - - - - - - 12.1 1022.9 0.0
22/06:00am NE 5 6 - - - - - - - 12.5 1022.6 0.0
22/05:30am NE 6 7 - - - - - - - 12.5 1022.8 0.0
22/05:00am NNE 3 4 - - - - - - - 13.3 1022.9 0.0
22/04:30am NNE 3 4 - - - - - - - 13.5 1022.8 0.0
22/04:00am NNE 4 4 - - - - - - - 13.4 1022.8 0.0
22/03:30am NNE 5 6 - - - - - - - 12.8 1022.7 0.0
22/03:00am NNE 4 5 - - - - - - - 13.2 1022.4 0.0
22/02:30am SE 3 4 - - - - - - - 13.5 1023.0 0.0
22/02:00am SSE 3 4 - - - - - - - 13.2 1023.3 0.0
22/01:30am SSE 5 6 - - - - - - - 12.3 1023.5 0.0
22/01:00am SSE 5 6 - - - - - - - 12.4 1023.7 0.0
22/12:30am SSE 5 6 - - - - - - - 12.5 1023.5 0.0
22/12:00am SSE 6 7 - - - - - - - 12.2 1023.0 0.0
 
Date/Time
EDT
Wind Sea
Height
m
Swell Vis
km
Cloud Weather Temp
°C
Press
hPa
Rain since
9am
mm
Dir  Spd
kts
Gust
kts
Height
m
Period
s
Dir
21/11:30pm S 7 8 - - - - - - - 12.4 1023.1 0.0
21/11:00pm SSW 7 8 - - - - - - - 12.4 1022.9 0.0
21/10:30pm SSW 8 10 - - - - - - - 12.7 1022.9 0.0
21/10:00pm SSW 7 11 - - - - - - - 12.9 1022.8 0.0
21/09:30pm SSW 7 10 - - - - - - - 13.2 1022.5 0.0
21/09:00pm SW 12 14 - - - - - - - 13.7 1021.7 0.0
21/08:30pm SW 11 15 - - - - - - - 14.3 1021.7 0.0
21/08:00pm SW 13 16 - - - - - - - 13.7 1021.3 0.0

Other formats

Comma delimited format used in spreadsheet applications
http://www.bom.gov.au/fwo/IDV60701/IDV60701.94949.axf

JavaScript Object Notation format (JSON) in row-major order
http://www.bom.gov.au/fwo/IDV60701/IDV60701.94949.json

Data quality

Most of these data are generated automatically and are frequently updated. Quality checks on data are not normally performed. It is possible for incorrect values to appear. Refer to information at About Latest Weather Observations and please check the disclaimer before using these data.